4XCWZ LLHZ-LLHZ

Flight info

Callsign 4XCWZ
Flight time 0h 1m
Altitude 800
Route CIRCUITS
Aircraft C172/L-V/N

Departure

Time 2026-04-26 14:51
Airport Herzliya Airport (LLHZ)

Arrival

Time 2026-04-26 14:53
Airport Herzliya Airport (LLHZ)
Time Latitude Longitude Altitude Speed Heading
2026-04-26 14:43 32.17946 34.83556 108 ft 0 kts 20°
2026-04-26 14:48 32.17949 34.83558 116 ft 5 kts 20°
2026-04-26 14:48 32.17926 34.83676 121 ft 25 kts 111°
2026-04-26 14:48 32.17883 34.83852 129 ft 6 kts 71°
2026-04-26 14:49 32.17884 34.83854 129 ft 0 kts 72°
2026-04-26 14:50 32.17910 34.83854 130 ft 13 kts 302°
2026-04-26 14:50 32.17916 34.83841 130 ft 0 kts 291°
2026-04-26 14:50 32.17920 34.83828 130 ft 15 kts 291°
2026-04-26 14:50 32.18025 34.83496 132 ft 65 kts 286°
2026-04-26 14:51 32.18159 34.82943 180 ft 80 kts 276°
2026-04-26 14:51 32.18469 34.82589 447 ft 80 kts
2026-04-26 14:51 32.18988 34.82918 624 ft 83 kts 19°
2026-04-26 14:51 32.19353 34.83433 779 ft 89 kts 87°
2026-04-26 14:52 32.19060 34.84023 750 ft 97 kts 133°
2026-04-26 14:52 32.18621 34.84665 775 ft 107 kts 135°
2026-04-26 14:52 32.18063 34.85185 898 ft 86 kts 174°
2026-04-26 14:52 32.17588 34.85017 774 ft 72 kts 237°
2026-04-26 14:53 32.17664 34.84497 501 ft 68 kts 296°
2026-04-26 14:53 32.17863 34.84033 224 ft 57 kts 284°
2026-04-26 14:53 32.17976 34.83654 122 ft 43 kts 281°
2026-04-26 14:53 32.18062 34.83298 182 ft 42 kts 275°
2026-04-26 14:54 32.18198 34.82948 300 ft 56 kts 290°
2026-04-26 14:54 32.18584 34.82727 422 ft 84 kts
2026-04-26 14:54 32.19152 34.83036 571 ft 100 kts 35°
2026-04-26 14:54 32.19278 34.83842 710 ft 107 kts 104°
2026-04-26 14:55 32.19016 34.84680 877 ft 110 kts 118°
2026-04-26 14:55 32.18589 34.85418 970 ft 114 kts 149°
2026-04-26 14:55 32.17882 34.85396 848 ft 96 kts 218°
2026-04-26 14:55 32.17645 34.84913 703 ft 57 kts 279°
2026-04-26 14:56 32.17754 34.84450 415 ft 59 kts 279°
2026-04-26 14:56 32.17881 34.83974 190 ft 63 kts 283°
2026-04-26 14:56 32.18018 34.83522 120 ft 53 kts 281°
2026-04-26 14:56 32.18107 34.83140 251 ft 53 kts 283°
2026-04-26 14:57 32.18311 34.82742 422 ft 58 kts 326°
2026-04-26 14:57 32.18779 34.82875 494 ft 78 kts 11°
2026-04-26 14:57 32.19288 34.83188 629 ft 90 kts 33°
2026-04-26 14:57 32.19365 34.83881 765 ft 98 kts 123°
2026-04-26 14:58 32.18890 34.84524 839 ft 106 kts 142°
2026-04-26 14:58 32.18331 34.85078 923 ft 91 kts 161°
2026-04-26 14:58 32.17793 34.85128 859 ft 75 kts 212°
2026-04-26 14:58 32.17672 34.84654 627 ft 65 kts 291°
2026-04-26 14:59 32.17839 34.84122 286 ft 75 kts 283°
2026-04-26 14:59 32.17992 34.83618 121 ft 51 kts 285°
2026-04-26 14:59 32.18101 34.83223 108 ft 62 kts 292°
2026-04-26 14:59 32.18244 34.82895 208 ft 71 kts 292°
2026-04-26 15:00 32.18788 34.82800 500 ft 81 kts 20°
2026-04-26 15:00 32.19280 34.83241 648 ft 94 kts 57°
2026-04-26 15:00 32.19053 34.83962 678 ft 109 kts 136°
2026-04-26 15:00 32.18536 34.84627 798 ft 116 kts 129°
2026-04-26 15:01 32.18172 34.85087 817 ft 119 kts 154°